sensor_id;sensor_type;location;lat;lon;timestamp;pressure;altitude;pressure_sealevel;temperature;humidity
27712;BME280;2377;51.734;8.950;2023-03-24T00:00:27;96582.81;;;11.37;92.47
27712;BME280;2377;51.734;8.950;2023-03-24T00:02:54;96570.00;;;11.37;92.39
27712;BME280;2377;51.734;8.950;2023-03-24T00:05:26;96580.78;;;11.39;92.55
27712;BME280;2377;51.734;8.950;2023-03-24T00:07:55;96576.41;;;11.39;93.10
27712;BME280;2377;51.734;8.950;2023-03-24T00:10:25;96575.38;;;11.40;93.31
27712;BME280;2377;51.734;8.950;2023-03-24T00:12:55;96570.28;;;11.40;93.85
27712;BME280;2377;51.734;8.950;2023-03-24T00:15:26;96562.88;;;11.39;94.50
27712;BME280;2377;51.734;8.950;2023-03-24T00:17:53;96559.03;;;11.41;95.09
27712;BME280;2377;51.734;8.950;2023-03-24T00:20:24;96554.44;;;11.43;95.33
27712;BME280;2377;51.734;8.950;2023-03-24T00:22:55;96547.81;;;11.48;95.75
27712;BME280;2377;51.734;8.950;2023-03-24T00:25:26;96540.16;;;11.48;96.52
27712;BME280;2377;51.734;8.950;2023-03-24T00:27:54;96537.84;;;11.51;97.08
27712;BME280;2377;51.734;8.950;2023-03-24T00:30:24;96537.31;;;11.49;97.29
27712;BME280;2377;51.734;8.950;2023-03-24T00:32:51;96546.28;;;11.52;97.82
27712;BME280;2377;51.734;8.950;2023-03-24T00:35:19;96526.63;;;11.57;97.50
27712;BME280;2377;51.734;8.950;2023-03-24T00:37:46;96534.25;;;11.52;98.60
27712;BME280;2377;51.734;8.950;2023-03-24T00:40:17;96522.03;;;11.59;97.68
27712;BME280;2377;51.734;8.950;2023-03-24T00:42:48;96515.88;;;11.60;98.10
27712;BME280;2377;51.734;8.950;2023-03-24T00:45:17;96517.44;;;11.67;97.84
27712;BME280;2377;51.734;8.950;2023-03-24T00:47:46;96505.66;;;11.66;98.06
27712;BME280;2377;51.734;8.950;2023-03-24T00:50:17;96506.41;;;11.61;98.42
27712;BME280;2377;51.734;8.950;2023-03-24T00:52:46;96502.59;;;11.69;97.95
27712;BME280;2377;51.734;8.950;2023-03-24T00:55:15;96489.31;;;11.72;98.41
27712;BME280;2377;51.734;8.950;2023-03-24T00:57:44;96488.53;;;11.71;98.40
27712;BME280;2377;51.734;8.950;2023-03-24T01:00:17;96483.13;;;11.68;99.02
27712;BME280;2377;51.734;8.950;2023-03-24T01:02:49;96483.13;;;11.68;98.94
27712;BME280;2377;51.734;8.950;2023-03-24T01:05:19;96482.16;;;11.74;98.84
27712;BME280;2377;51.734;8.950;2023-03-24T01:07:46;96485.22;;;11.76;98.82
27712;BME280;2377;51.734;8.950;2023-03-24T01:10:18;96482.41;;;11.77;98.74
27712;BME280;2377;51.734;8.950;2023-03-24T01:12:46;96470.13;;;11.79;98.33
27712;BME280;2377;51.734;8.950;2023-03-24T01:15:17;96470.38;;;11.83;98.07
27712;BME280;2377;51.734;8.950;2023-03-24T01:17:46;96463.19;;;11.85;98.19
27712;BME280;2377;51.734;8.950;2023-03-24T01:20:15;96462.72;;;11.83;98.65
27712;BME280;2377;51.734;8.950;2023-03-24T01:22:42;96462.19;;;11.86;98.79
27712;BME280;2377;51.734;8.950;2023-03-24T01:25:11;96456.88;;;11.88;98.47
27712;BME280;2377;51.734;8.950;2023-03-24T01:27:41;96453.50;;;11.87;98.84
27712;BME280;2377;51.734;8.950;2023-03-24T01:30:12;96447.13;;;11.90;98.73
27712;BME280;2377;51.734;8.950;2023-03-24T01:32:39;96442.25;;;11.88;99.04
27712;BME280;2377;51.734;8.950;2023-03-24T01:35:08;96442.72;;;11.85;99.77
27712;BME280;2377;51.734;8.950;2023-03-24T01:37:36;96435.59;;;11.87;99.26
27712;BME280;2377;51.734;8.950;2023-03-24T01:40:06;96427.38;;;11.85;99.80
27712;BME280;2377;51.734;8.950;2023-03-24T01:42:35;96426.13;;;11.93;99.47
27712;BME280;2377;51.734;8.950;2023-03-24T01:45:44;96427.91;;;11.92;99.73
27712;BME280;2377;51.734;8.950;2023-03-24T01:48:20;96423.06;;;11.91;99.71
27712;BME280;2377;51.734;8.950;2023-03-24T01:50:54;96427.91;;;11.92;100.00
27712;BME280;2377;51.734;8.950;2023-03-24T01:53:23;96418.97;;;12.00;99.28
27712;BME280;2377;51.734;8.950;2023-03-24T01:55:51;96409.22;;;11.97;99.53
27712;BME280;2377;51.734;8.950;2023-03-24T01:58:19;96408.47;;;11.96;99.86
27712;BME280;2377;51.734;8.950;2023-03-24T02:00:46;96412.81;;;12.01;99.32
27712;BME280;2377;51.734;8.950;2023-03-24T02:03:19;96404.88;;;12.02;99.01
27712;BME280;2377;51.734;8.950;2023-03-24T02:05:52;96398.72;;;12.03;99.22
27712;BME280;2377;51.734;8.950;2023-03-24T02:08:29;96394.13;;;12.00;99.63
27712;BME280;2377;51.734;8.950;2023-03-24T02:10:59;96383.38;;;12.03;99.14
27712;BME280;2377;51.734;8.950;2023-03-24T02:13:27;96381.31;;;12.05;99.16
27712;BME280;2377;51.734;8.950;2023-03-24T02:16:22;96376.19;;;12.05;98.78
27712;BME280;2377;51.734;8.950;2023-03-24T02:19:11;96375.44;;;12.05;99.09
27712;BME280;2377;51.734;8.950;2023-03-24T02:22:41;96362.88;;;12.03;99.44
27712;BME280;2377;51.734;8.950;2023-03-24T02:28:32;96360.06;;;12.10;98.81
27712;BME280;2377;51.734;8.950;2023-03-24T02:31:41;96349.56;;;12.12;98.54
27712;BME280;2377;51.734;8.950;2023-03-24T02:41:00;96355.47;;;12.12;98.20
27712;BME280;2377;51.734;8.950;2023-03-24T02:43:46;96345.22;;;12.07;99.14
27712;BME280;2377;51.734;8.950;2023-03-24T02:46:24;96349.59;;;12.07;99.01
27712;BME280;2377;51.734;8.950;2023-03-24T02:49:09;96339.84;;;12.03;98.88
27712;BME280;2377;51.734;8.950;2023-03-24T02:51:52;96331.91;;;12.00;99.08
27712;BME280;2377;51.734;8.950;2023-03-24T02:54:37;96335.47;;;11.99;99.51
27712;BME280;2377;51.734;8.950;2023-03-24T02:57:14;96341.66;;;11.93;100.00
27712;BME280;2377;51.734;8.950;2023-03-24T02:59:52;96337.31;;;11.88;100.00
27712;BME280;2377;51.734;8.950;2023-03-24T03:02:26;96340.06;;;11.87;100.00
27712;BME280;2377;51.734;8.950;2023-03-24T03:05:01;96334.97;;;11.81;100.00
27712;BME280;2377;51.734;8.950;2023-03-24T03:07:31;96320.38;;;11.82;100.00
27712;BME280;2377;51.734;8.950;2023-03-24T03:10:08;96326.00;;;11.79;100.00
27712;BME280;2377;51.734;8.950;2023-03-24T03:12:43;96315.25;;;11.77;100.00
27712;BME280;2377;51.734;8.950;2023-03-24T03:15:16;96312.19;;;11.75;100.00
27712;BME280;2377;51.734;8.950;2023-03-24T03:17:52;96308.84;;;11.74;100.00
27712;BME280;2377;51.734;8.950;2023-03-24T03:20:25;96298.88;;;11.68;100.00
27712;BME280;2377;51.734;8.950;2023-03-24T03:23:00;96304.25;;;11.71;100.00
27712;BME280;2377;51.734;8.950;2023-03-24T03:25:35;96279.91;;;11.69;100.00
27712;BME280;2377;51.734;8.950;2023-03-24T03:28:11;96281.22;;;11.71;100.00
27712;BME280;2377;51.734;8.950;2023-03-24T03:30:44;96269.69;;;11.69;100.00
27712;BME280;2377;51.734;8.950;2023-03-24T03:33:18;96263.03;;;11.68;100.00
27712;BME280;2377;51.734;8.950;2023-03-24T03:35:54;96262.00;;;11.69;100.00
27712;BME280;2377;51.734;8.950;2023-03-24T03:38:34;96260.47;;;11.68;100.00
27712;BME280;2377;51.734;8.950;2023-03-24T03:41:06;96250.25;;;11.68;100.00
27712;BME280;2377;51.734;8.950;2023-03-24T03:43:35;96237.97;;;11.70;100.00
27712;BME280;2377;51.734;8.950;2023-03-24T03:46:03;96245.13;;;11.62;100.00
27712;BME280;2377;51.734;8.950;2023-03-24T03:48:33;96242.56;;;11.68;100.00
27712;BME280;2377;51.734;8.950;2023-03-24T03:51:00;96243.34;;;11.68;100.00
27712;BME280;2377;51.734;8.950;2023-03-24T03:53:37;96234.66;;;11.69;100.00
27712;BME280;2377;51.734;8.950;2023-03-24T03:56:08;96232.84;;;11.70;100.00
27712;BME280;2377;51.734;8.950;2023-03-24T03:58:37;96217.50;;;11.70;100.00
27712;BME280;2377;51.734;8.950;2023-03-24T04:01:10;96222.09;;;11.68;100.00
27712;BME280;2377;51.734;8.950;2023-03-24T04:04:04;96222.09;;;11.68;100.00
27712;BME280;2377;51.734;8.950;2023-03-24T04:06:40;96223.13;;;11.67;100.00
27712;BME280;2377;51.734;8.950;2023-03-24T04:09:28;96220.56;;;11.67;100.00
27712;BME280;2377;51.734;8.950;2023-03-24T04:18:31;96226.19;;;11.63;100.00
27712;BME280;2377;51.734;8.950;2023-03-24T04:21:26;96218.00;;;11.67;100.00
27712;BME280;2377;51.734;8.950;2023-03-24T04:24:16;96223.13;;;11.67;100.00
27712;BME280;2377;51.734;8.950;2023-03-24T04:26:53;96217.75;;;11.68;100.00
27712;BME280;2377;51.734;8.950;2023-03-24T04:29:35;96227.22;;;11.68;100.00
27712;BME280;2377;51.734;8.950;2023-03-24T04:32:12;96216.97;;;11.68;100.00
27712;BME280;2377;51.734;8.950;2023-03-24T04:34:48;96221.34;;;11.67;100.00
27712;BME280;2377;51.734;8.950;2023-03-24T04:37:24;96216.44;;;11.71;100.00
27712;BME280;2377;51.734;8.950;2023-03-24T04:39:55;96215.69;;;11.70;100.00
27712;BME280;2377;51.734;8.950;2023-03-24T04:42:30;96221.06;;;11.74;100.00
27712;BME280;2377;51.734;8.950;2023-03-24T04:45:01;96219.78;;;11.76;100.00
27712;BME280;2377;51.734;8.950;2023-03-24T04:47:35;96210.56;;;11.75;100.00
27712;BME280;2377;51.734;8.950;2023-03-24T04:50:09;96209.03;;;11.79;100.00
27712;BME280;2377;51.734;8.950;2023-03-24T04:52:37;96208.25;;;11.79;100.00
27712;BME280;2377;51.734;8.950;2023-03-24T04:55:31;96216.94;;;11.78;100.00
27712;BME280;2377;51.734;8.950;2023-03-24T04:58:03;96203.66;;;11.81;100.00
27712;BME280;2377;51.734;8.950;2023-03-24T05:00:30;96217.44;;;11.85;100.00
27712;BME280;2377;51.734;8.950;2023-03-24T05:02:59;96201.34;;;11.90;100.00
27712;BME280;2377;51.734;8.950;2023-03-24T05:05:26;96203.41;;;11.93;100.00
27712;BME280;2377;51.734;8.950;2023-03-24T05:07:53;96199.03;;;11.93;100.00
27712;BME280;2377;51.734;8.950;2023-03-24T05:10:22;96207.22;;;11.95;100.00
27712;BME280;2377;51.734;8.950;2023-03-24T05:12:49;96195.19;;;11.96;100.00
27712;BME280;2377;51.734;8.950;2023-03-24T05:15:16;96188.25;;;11.96;100.00
27712;BME280;2377;51.734;8.950;2023-03-24T05:17:43;96194.16;;;11.97;100.00
27712;BME280;2377;51.734;8.950;2023-03-24T05:20:12;96186.72;;;12.00;100.00
27712;BME280;2377;51.734;8.950;2023-03-24T05:22:40;96203.13;;;11.99;100.00
27712;BME280;2377;51.734;8.950;2023-03-24T05:25:08;96193.66;;;12.00;100.00
27712;BME280;2377;51.734;8.950;2023-03-24T05:27:35;96190.03;;;12.01;100.00
27712;BME280;2377;51.734;8.950;2023-03-24T05:30:04;96195.94;;;12.07;100.00
27712;BME280;2377;51.734;8.950;2023-03-24T05:32:32;96190.03;;;12.06;100.00
27712;BME280;2377;51.734;8.950;2023-03-24T05:34:59;96200.78;;;12.08;100.00
27712;BME280;2377;51.734;8.950;2023-03-24T05:37:27;96192.59;;;12.11;100.00
27712;BME280;2377;51.734;8.950;2023-03-24T05:39:55;96204.59;;;12.16;100.00
27712;BME280;2377;51.734;8.950;2023-03-24T05:42:22;96195.63;;;12.18;100.00
27712;BME280;2377;51.734;8.950;2023-03-24T05:44:49;96192.28;;;12.23;100.00
27712;BME280;2377;51.734;8.950;2023-03-24T05:47:16;96206.88;;;12.27;100.00
27712;BME280;2377;51.734;8.950;2023-03-24T05:49:45;96198.41;;;12.27;100.00
27712;BME280;2377;51.734;8.950;2023-03-24T05:52:13;96203.00;;;12.30;100.00
27712;BME280;2377;51.734;8.950;2023-03-24T05:54:42;96211.97;;;12.33;100.00
27712;BME280;2377;51.734;8.950;2023-03-24T05:57:12;96208.38;;;12.34;100.00
27712;BME280;2377;51.734;8.950;2023-03-24T05:59:40;96221.16;;;12.39;100.00
27712;BME280;2377;51.734;8.950;2023-03-24T06:02:07;96213.75;;;12.37;100.00
27712;BME280;2377;51.734;8.950;2023-03-24T06:04:35;96224.75;;;12.38;100.00
27712;BME280;2377;51.734;8.950;2023-03-24T06:07:03;96212.69;;;12.38;100.00
27712;BME280;2377;51.734;8.950;2023-03-24T06:09:31;96230.63;;;12.38;100.00
27712;BME280;2377;51.734;8.950;2023-03-24T06:12:02;96271.13;;;12.36;100.00
27712;BME280;2377;51.734;8.950;2023-03-24T06:14:29;96313.22;;;11.99;100.00
27712;BME280;2377;51.734;8.950;2023-03-24T06:16:58;96307.31;;;11.78;98.05
27712;BME280;2377;51.734;8.950;2023-03-24T06:19:26;96312.44;;;11.58;100.00
27712;BME280;2377;51.734;8.950;2023-03-24T06:21:55;96304.75;;;11.37;100.00
27712;BME280;2377;51.734;8.950;2023-03-24T06:24:25;96300.91;;;11.40;100.00
27712;BME280;2377;51.734;8.950;2023-03-24T06:26:52;96309.06;;;11.21;100.00
27712;BME280;2377;51.734;8.950;2023-03-24T06:29:25;96303.72;;;11.38;100.00
27712;BME280;2377;51.734;8.950;2023-03-24T06:31:52;96308.56;;;11.40;100.00
27712;BME280;2377;51.734;8.950;2023-03-24T06:34:19;96307.06;;;11.39;100.00
27712;BME280;2377;51.734;8.950;2023-03-24T06:36:47;96311.66;;;11.32;100.00
27712;BME280;2377;51.734;8.950;2023-03-24T06:39:14;96315.75;;;11.43;100.00
27712;BME280;2377;51.734;8.950;2023-03-24T06:41:41;96312.41;;;11.42;100.00
27712;BME280;2377;51.734;8.950;2023-03-24T06:44:08;96323.16;;;11.45;100.00
27712;BME280;2377;51.734;8.950;2023-03-24T06:46:38;96317.81;;;11.46;100.00
27712;BME280;2377;51.734;8.950;2023-03-24T06:49:06;96319.09;;;11.43;100.00
27712;BME280;2377;51.734;8.950;2023-03-24T06:51:34;96322.66;;;11.42;100.00
27712;BME280;2377;51.734;8.950;2023-03-24T06:54:02;96313.19;;;11.69;100.00
27712;BME280;2377;51.734;8.950;2023-03-24T06:56:29;96320.63;;;11.85;100.00
27712;BME280;2377;51.734;8.950;2023-03-24T06:58:56;96327.53;;;11.80;100.00
27712;BME280;2377;51.734;8.950;2023-03-24T07:01:23;96330.91;;;11.91;100.00
27712;BME280;2377;51.734;8.950;2023-03-24T07:03:52;96349.03;;;11.84;100.00
27712;BME280;2377;51.734;8.950;2023-03-24T07:06:19;96349.06;;;11.74;100.00
27712;BME280;2377;51.734;8.950;2023-03-24T07:08:47;96352.88;;;11.76;100.00
27712;BME280;2377;51.734;8.950;2023-03-24T07:11:15;96360.81;;;11.64;100.00
27712;BME280;2377;51.734;8.950;2023-03-24T07:13:43;96364.91;;;11.71;100.00
27712;BME280;2377;51.734;8.950;2023-03-24T07:16:10;96361.84;;;11.79;100.00
27712;BME280;2377;51.734;8.950;2023-03-24T07:18:37;96367.47;;;11.86;100.00
27712;BME280;2377;51.734;8.950;2023-03-24T07:21:06;96372.31;;;11.72;100.00
27712;BME280;2377;51.734;8.950;2023-03-24T07:23:34;96377.97;;;11.79;100.00
27712;BME280;2377;51.734;8.950;2023-03-24T07:26:01;96378.47;;;11.76;100.00
27712;BME280;2377;51.734;8.950;2023-03-24T07:28:28;96398.19;;;11.81;100.00
27712;BME280;2377;51.734;8.950;2023-03-24T07:30:55;96389.25;;;11.89;100.00
27712;BME280;2377;51.734;8.950;2023-03-24T07:33:24;96391.56;;;11.90;100.00
27712;BME280;2377;51.734;8.950;2023-03-24T07:35:54;96407.44;;;11.87;100.00
27712;BME280;2377;51.734;8.950;2023-03-24T07:38:24;96399.72;;;11.77;100.00
27712;BME280;2377;51.734;8.950;2023-03-24T07:40:51;96408.16;;;11.67;100.00
27712;BME280;2377;51.734;8.950;2023-03-24T07:43:19;96402.28;;;11.77;99.29
27712;BME280;2377;51.734;8.950;2023-03-24T07:45:46;96415.59;;;11.84;99.46
27712;BME280;2377;51.734;8.950;2023-03-24T07:48:14;96411.00;;;11.81;98.79
27712;BME280;2377;51.734;8.950;2023-03-24T07:50:41;96418.69;;;11.86;98.26
27712;BME280;2377;51.734;8.950;2023-03-24T07:53:08;96422.78;;;11.92;98.60
27712;BME280;2377;51.734;8.950;2023-03-24T07:55:37;96421.78;;;12.09;98.07
27712;BME280;2377;51.734;8.950;2023-03-24T07:58:05;96408.97;;;12.09;95.93
27712;BME280;2377;51.734;8.950;2023-03-24T08:00:33;96409.22;;;12.17;96.12
27712;BME280;2377;51.734;8.950;2023-03-24T08:03:02;96429.97;;;12.31;95.96
27712;BME280;2377;51.734;8.950;2023-03-24T08:05:29;96442.28;;;12.44;96.25
27712;BME280;2377;51.734;8.950;2023-03-24T08:07:56;96454.06;;;12.40;94.01
27712;BME280;2377;51.734;8.950;2023-03-24T08:10:27;96461.47;;;12.37;94.81
27712;BME280;2377;51.734;8.950;2023-03-24T08:12:58;96465.09;;;12.51;94.14
27712;BME280;2377;51.734;8.950;2023-03-24T08:15:26;96460.19;;;12.55;93.15
27712;BME280;2377;51.734;8.950;2023-03-24T08:17:53;96479.91;;;12.69;93.71
27712;BME280;2377;51.734;8.950;2023-03-24T08:20:21;96472.50;;;12.63;91.22
27712;BME280;2377;51.734;8.950;2023-03-24T08:22:52;96485.03;;;12.85;92.84
27712;BME280;2377;51.734;8.950;2023-03-24T08:25:22;96472.72;;;12.77;90.78
27712;BME280;2377;51.734;8.950;2023-03-24T08:27:50;96488.09;;;12.77;90.21
27712;BME280;2377;51.734;8.950;2023-03-24T08:30:20;96496.59;;;12.52;89.55
27712;BME280;2377;51.734;8.950;2023-03-24T08:32:51;96494.78;;;12.16;89.53
27712;BME280;2377;51.734;8.950;2023-03-24T08:35:21;96499.41;;;12.09;89.55
27712;BME280;2377;51.734;8.950;2023-03-24T08:37:49;96489.16;;;12.09;87.46
27712;BME280;2377;51.734;8.950;2023-03-24T08:40:19;96501.19;;;12.14;86.74
27712;BME280;2377;51.734;8.950;2023-03-24T08:42:50;96491.97;;;12.18;86.03
27712;BME280;2377;51.734;8.950;2023-03-24T08:45:22;96481.75;;;12.28;84.52
27712;BME280;2377;51.734;8.950;2023-03-24T08:47:54;96471.47;;;12.18;83.95
27712;BME280;2377;51.734;8.950;2023-03-24T08:50:24;96483.22;;;11.98;82.44
27712;BME280;2377;51.734;8.950;2023-03-24T08:52:53;96502.44;;;11.91;81.89
27712;BME280;2377;51.734;8.950;2023-03-24T08:55:21;96495.19;;;11.82;82.80
27712;BME280;2377;51.734;8.950;2023-03-24T08:57:49;96492.09;;;11.70;81.99
27712;BME280;2377;51.734;8.950;2023-03-24T09:00:20;96503.19;;;11.96;83.84
27712;BME280;2377;51.734;8.950;2023-03-24T09:02:50;96485.47;;;11.84;83.67
27712;BME280;2377;51.734;8.950;2023-03-24T09:05:20;96501.41;;;11.97;83.67
27712;BME280;2377;51.734;8.950;2023-03-24T09:07:48;96511.38;;;11.88;82.85
27712;BME280;2377;51.734;8.950;2023-03-24T09:10:16;96515.97;;;11.86;83.02
27712;BME280;2377;51.734;8.950;2023-03-24T09:12:44;96496.03;;;11.93;83.14
27712;BME280;2377;51.734;8.950;2023-03-24T09:15:12;96498.81;;;11.87;81.60
27712;BME280;2377;51.734;8.950;2023-03-24T09:17:41;96504.22;;;11.90;84.17
27712;BME280;2377;51.734;8.950;2023-03-24T09:20:11;96502.16;;;11.92;81.79
27712;BME280;2377;51.734;8.950;2023-03-24T09:22:43;96492.41;;;11.84;82.44
27712;BME280;2377;51.734;8.950;2023-03-24T09:25:14;96495.53;;;11.96;83.49
27712;BME280;2377;51.734;8.950;2023-03-24T09:27:41;96499.09;;;11.90;82.28
27712;BME280;2377;51.734;8.950;2023-03-24T09:30:10;96500.63;;;11.96;82.10
27712;BME280;2377;51.734;8.950;2023-03-24T09:32:40;96495.81;;;12.20;84.14
27712;BME280;2377;51.734;8.950;2023-03-24T09:35:08;96505.81;;;12.58;83.59
27712;BME280;2377;51.734;8.950;2023-03-24T09:37:36;96491.41;;;12.93;84.95
27712;BME280;2377;51.734;8.950;2023-03-24T09:40:06;96486.78;;;13.05;82.69
27712;BME280;2377;51.734;8.950;2023-03-24T09:42:37;96490.53;;;13.43;83.80
27712;BME280;2377;51.734;8.950;2023-03-24T09:45:11;96491.22;;;13.59;80.67
27712;BME280;2377;51.734;8.950;2023-03-24T09:47:44;96498.75;;;13.45;79.71
27712;BME280;2377;51.734;8.950;2023-03-24T09:50:20;96498.47;;;13.47;80.30
27712;BME280;2377;51.734;8.950;2023-03-24T09:52:52;96502.59;;;13.38;78.33
27712;BME280;2377;51.734;8.950;2023-03-24T09:55:24;96508.81;;;13.11;78.31
27712;BME280;2377;51.734;8.950;2023-03-24T09:57:55;96514.25;;;12.74;73.73
27712;BME280;2377;51.734;8.950;2023-03-24T10:00:26;96498.63;;;12.75;74.69
27712;BME280;2377;51.734;8.950;2023-03-24T10:02:59;96496.59;;;12.57;73.10
27712;BME280;2377;51.734;8.950;2023-03-24T10:05:33;96521.72;;;12.55;74.48
27712;BME280;2377;51.734;8.950;2023-03-24T10:08:14;96512.97;;;12.56;75.46
27712;BME280;2377;51.734;8.950;2023-03-24T10:10:56;96529.38;;;12.90;76.18
27712;BME280;2377;51.734;8.950;2023-03-24T10:13:39;96528.88;;;12.94;73.32
27712;BME280;2377;51.734;8.950;2023-03-24T10:16:19;96526.78;;;12.96;74.82
27712;BME280;2377;51.734;8.950;2023-03-24T10:18:57;96535.78;;;12.98;73.08
27712;BME280;2377;51.734;8.950;2023-03-24T10:21:32;96550.91;;;12.95;74.58
27712;BME280;2377;51.734;8.950;2023-03-24T10:24:09;96549.91;;;13.01;75.20
27712;BME280;2377;51.734;8.950;2023-03-24T10:26:53;96557.06;;;12.99;75.13
27712;BME280;2377;51.734;8.950;2023-03-24T10:29:28;96566.06;;;12.96;75.09
27712;BME280;2377;51.734;8.950;2023-03-24T10:31:59;96567.34;;;12.78;73.59
27712;BME280;2377;51.734;8.950;2023-03-24T10:34:32;96563.75;;;12.89;74.55
27712;BME280;2377;51.734;8.950;2023-03-24T10:37:03;96562.94;;;13.09;74.82
27712;BME280;2377;51.734;8.950;2023-03-24T10:39:31;96562.19;;;13.29;75.09
27712;BME280;2377;51.734;8.950;2023-03-24T10:42:00;96564.72;;;13.35;73.39
27712;BME280;2377;51.734;8.950;2023-03-24T10:44:28;96565.75;;;13.18;72.30
27712;BME280;2377;51.734;8.950;2023-03-24T10:47:02;96570.91;;;13.18;73.17
27712;BME280;2377;51.734;8.950;2023-03-24T10:49:33;96569.63;;;13.10;72.59
27712;BME280;2377;51.734;8.950;2023-03-24T10:52:07;96570.13;;;13.23;73.91
27712;BME280;2377;51.734;8.950;2023-03-24T10:54:35;96568.31;;;13.18;73.09
27712;BME280;2377;51.734;8.950;2023-03-24T10:57:06;96565.00;;;13.13;72.72
27712;BME280;2377;51.734;8.950;2023-03-24T10:59:53;96572.19;;;13.36;73.49
27712;BME280;2377;51.734;8.950;2023-03-24T11:02:24;96574.47;;;13.43;72.44
27712;BME280;2377;51.734;8.950;2023-03-24T11:04:57;96565.00;;;13.38;69.83
27712;BME280;2377;51.734;8.950;2023-03-24T11:07:31;96571.16;;;13.32;68.96
27712;BME280;2377;51.734;8.950;2023-03-24T11:10:06;96580.91;;;13.25;69.79
27712;BME280;2377;51.734;8.950;2023-03-24T11:12:42;96568.06;;;13.20;69.03
27712;BME280;2377;51.734;8.950;2023-03-24T11:15:21;96567.09;;;12.85;68.06
27712;BME280;2377;51.734;8.950;2023-03-24T11:17:54;96582.72;;;12.94;69.17
27712;BME280;2377;51.734;8.950;2023-03-24T11:20:29;96575.25;;;13.07;70.54
27712;BME280;2377;51.734;8.950;2023-03-24T11:23:01;96577.06;;;13.02;69.12
27712;BME280;2377;51.734;8.950;2023-03-24T11:25:31;96574.75;;;13.10;69.56
27712;BME280;2377;51.734;8.950;2023-03-24T11:28:01;96566.81;;;12.97;68.92
27712;BME280;2377;51.734;8.950;2023-03-24T11:30:34;96569.88;;;13.04;68.92
27712;BME280;2377;51.734;8.950;2023-03-24T11:33:02;96570.91;;;13.08;69.72
27712;BME280;2377;51.734;8.950;2023-03-24T11:35:31;96573.47;;;13.13;69.24
27712;BME280;2377;51.734;8.950;2023-03-24T11:38:05;96580.13;;;13.09;69.54
27712;BME280;2377;51.734;8.950;2023-03-24T11:40:32;96569.09;;;13.19;69.29
27712;BME280;2377;51.734;8.950;2023-03-24T11:43:03;96582.19;;;13.22;69.68
27712;BME280;2377;51.734;8.950;2023-03-24T11:45:37;96578.56;;;13.23;68.45
27712;BME280;2377;51.734;8.950;2023-03-24T11:48:22;96573.22;;;13.30;68.04
27712;BME280;2377;51.734;8.950;2023-03-24T11:50:55;96574.25;;;13.08;65.53
27712;BME280;2377;51.734;8.950;2023-03-24T11:53:29;96583.75;;;13.03;66.89
27712;BME280;2377;51.734;8.950;2023-03-24T11:56:05;96585.03;;;13.10;68.16
27712;BME280;2377;51.734;8.950;2023-03-24T11:58:40;96589.38;;;13.05;67.91
27712;BME280;2377;51.734;8.950;2023-03-24T12:01:26;96594.00;;;13.08;68.17
27712;BME280;2377;51.734;8.950;2023-03-24T12:04:33;96597.56;;;13.12;68.74
27712;BME280;2377;51.734;8.950;2023-03-24T12:07:41;96599.13;;;13.13;69.30
27712;BME280;2377;51.734;8.950;2023-03-24T12:10:30;96607.84;;;13.07;68.79
27712;BME280;2377;51.734;8.950;2023-03-24T12:13:09;96603.72;;;13.21;68.51
27712;BME280;2377;51.734;8.950;2023-03-24T12:15:49;96604.00;;;13.15;66.21
27712;BME280;2377;51.734;8.950;2023-03-24T12:18:38;96616.03;;;13.14;67.20
27712;BME280;2377;51.734;8.950;2023-03-24T12:21:20;96608.34;;;13.19;65.77
27712;BME280;2377;51.734;8.950;2023-03-24T12:23:57;96615.03;;;13.10;67.34
27712;BME280;2377;51.734;8.950;2023-03-24T12:26:27;96596.03;;;13.37;69.39
27712;BME280;2377;51.734;8.950;2023-03-24T12:29:13;96590.84;;;13.62;68.47
27712;BME280;2377;51.734;8.950;2023-03-24T12:32:08;96600.53;;;13.75;66.34
27712;BME280;2377;51.734;8.950;2023-03-24T12:35:24;96594.97;;;13.58;63.92
27712;BME280;2377;51.734;8.950;2023-03-24T12:38:10;96577.78;;;13.53;64.08
27712;BME280;2377;51.734;8.950;2023-03-24T12:44:04;96592.38;;;13.63;64.02
27712;BME280;2377;51.734;8.950;2023-03-24T12:46:45;96580.56;;;13.62;64.11
27712;BME280;2377;51.734;8.950;2023-03-24T12:49:45;96569.72;;;13.81;64.66
27712;BME280;2377;51.734;8.950;2023-03-24T12:52:32;96568.69;;;13.82;63.79
27712;BME280;2377;51.734;8.950;2023-03-24T12:55:15;96578.00;;;13.62;62.58
27712;BME280;2377;51.734;8.950;2023-03-24T12:57:50;96576.72;;;13.60;63.55
27712;BME280;2377;51.734;8.950;2023-03-24T13:00:27;96575.47;;;13.47;63.18
27712;BME280;2377;51.734;8.950;2023-03-24T13:02:59;96578.03;;;13.47;63.60
27712;BME280;2377;51.734;8.950;2023-03-24T13:05:31;96569.53;;;13.62;64.55
27712;BME280;2377;51.734;8.950;2023-03-24T13:08:04;96578.19;;;13.81;65.69
27712;BME280;2377;51.734;8.950;2023-03-24T13:10:35;96577.59;;;14.00;66.08
27712;BME280;2377;51.734;8.950;2023-03-24T13:13:14;96583.53;;;13.95;64.58
27712;BME280;2377;51.734;8.950;2023-03-24T13:15:46;96584.59;;;13.84;63.20
27712;BME280;2377;51.734;8.950;2023-03-24T13:18:28;96577.94;;;13.78;63.12
27712;BME280;2377;51.734;8.950;2023-03-24T13:21:02;96574.38;;;13.68;64.15
27712;BME280;2377;51.734;8.950;2023-03-24T13:23:42;96584.63;;;13.79;63.77
27712;BME280;2377;51.734;8.950;2023-03-24T13:26:22;96563.88;;;13.65;62.55
27712;BME280;2377;51.734;8.950;2023-03-24T13:29:06;96571.56;;;13.70;62.83
27712;BME280;2377;51.734;8.950;2023-03-24T13:31:42;96572.03;;;13.77;63.55
27712;BME280;2377;51.734;8.950;2023-03-24T13:34:25;96567.19;;;13.70;60.86
27712;BME280;2377;51.734;8.950;2023-03-24T13:36:58;96563.25;;;13.88;62.87
27712;BME280;2377;51.734;8.950;2023-03-24T13:39:28;96568.88;;;13.95;61.68
27712;BME280;2377;51.734;8.950;2023-03-24T13:41:58;96573.25;;;13.95;62.87
27712;BME280;2377;51.734;8.950;2023-03-24T13:44:36;96569.19;;;13.84;59.86
27712;BME280;2377;51.734;8.950;2023-03-24T13:47:12;96578.41;;;13.95;60.12
27712;BME280;2377;51.734;8.950;2023-03-24T13:49:42;96577.56;;;14.05;60.99
27712;BME280;2377;51.734;8.950;2023-03-24T13:52:26;96583.00;;;13.98;60.39
27712;BME280;2377;51.734;8.950;2023-03-24T13:54:58;96573.53;;;13.88;60.59
27712;BME280;2377;51.734;8.950;2023-03-24T13:57:26;96568.94;;;13.80;61.11